Low temp

Not for real navigation. The accuracy of this data is not assured See disclaimer for more information



ICAO NAME COUNTRY WIND Kt GUST Kt VIS m TEMP/DEW C BARO METAR
UEEE Jakutsk Russia 2 0 900 -39/-42 30.15 UEEE 181700Z 33002KT 0900 0350NE R23L/1000N FG NSC M39/M42 Q1021 R23L/490150 NOSIG RMK QFE757
NZSP Amundsen-Scott South Pole Stat Antarctica 6 0 9999 -37/0 28.51 NZSP 181650Z 06006KT 9999 SCT030 SCT080 BKN130 M37/ A2851 RMK CLN AIR 07005KT ALL WNDS GRID SDG/HDG
CYDA Dawson, Y. T. Canada 2 0 9999 -34/-37 30.13 CYDA 181700Z VRB02KT 20SM CAVOK M34/M37 A3013 RMK SLP260
CXSE 5 0 9999 -34/-38 29.92 CXSE 181700Z AUTO 25005KT M34/M38 RMK AO1 SOG 27 1004 SLP247 T13431379
CYMA Mayo Airport Canada 0 0 32000 -32/-35 30.02 CYMA 181700Z 00000KT 20SM FEW030 M32/M35 A3002 RMK SC1 SC TR SLP241

Show more